• Join FlightAware (Why Join?)
  • Login
  • US Flag 
01:40PM EDT


 

Airport Tracker/Info


-or-


 

Live Flight TrackerFlight Track Log ✈ N990LC ✈ 19-Apr-2014 ✈ TLPC / SLU - KFXE

Flight Track Log - Related Links

Times and Time Zones

All times are in EDT time to prevent confusion due to time zone crossing. See the N990LC flight status page for this flight to view local times or setup timezone preferences in your user account.

Time Position Orientation Groundspeed Altitude Reporting Facility
EDT Latitude Longitude Course Direction KTS MPH feet Rate Location/Type
09:09AM 14.7271 -61.6211 323° Northwest  Level FlightAware Approximate
09:10AM 14.8108 -61.6862 323° Northwest  Level FlightAware Approximate
09:11AM 14.8923 -61.7543 319° Northwest  Level FlightAware Approximate
09:12AM 14.9718 -61.8249 319° Northwest  Level FlightAware Approximate
09:13AM 15.0548 -61.8911 324° Northwest  Level FlightAware Approximate
09:14AM 15.1315 -61.9648 316° Northwest  Level FlightAware Approximate
09:15AM 15.2079 -62.0391 319° Northwest  Level FlightAware Approximate
09:16AM 15.2864 -62.1111 319° Northwest  Level FlightAware Approximate
09:17AM 15.3649 -62.1831 319° Northwest  Level FlightAware Approximate
09:18AM 15.4463 -62.2515 322° Northwest  Level FlightAware Approximate
09:19AM 15.5286 -62.3188 322° Northwest  Level FlightAware Approximate
09:20AM 15.6096 -62.3878 320° Northwest  Level FlightAware Approximate
09:21AM 15.6883 -62.4600 319° Northwest  Level FlightAware Approximate
09:22AM 15.7491 -62.5490 320° Northwest  Level Estimated
09:23AM 15.8317 -62.6164 322° Northwest  Level FlightAware Approximate
09:24AM 15.9143 -62.6839 322° Northwest  Level FlightAware Approximate
09:25AM 15.9968 -62.7514 322° Northwest  Level FlightAware Approximate
09:26AM 16.0793 -62.8190 322° Northwest  Level FlightAware Approximate
09:27AM 16.1619 -62.8866 322° Northwest  Level FlightAware Approximate
09:28AM 16.2444 -62.9543 322° Northwest  Level FlightAware Approximate
09:29AM 16.3042 -63.0442 310° West  Level Estimated
09:30AM 16.3785 -63.1215 315° West  Level FlightAware Approximate
09:31AM 16.4529 -63.1988 315° West  Level FlightAware Approximate
09:32AM 16.5124 -63.2891 312° West  Level Estimated
09:33AM 16.5843 -63.3689 313° West  Level FlightAware Approximate
09:34AM 16.6562 -63.4488 313° West  Level FlightAware Approximate
09:35AM 16.7281 -63.5287 313° West  Level FlightAware Approximate
09:35AM 16.4500 -63.2333 313° West 400 460 38,000  Level San Juan Center
09:36AM 16.7999 -63.6087 313° West  Level FlightAware Approximate
09:36AM 16.5167 -63.3167 310° West 370 426 38,000  Level San Juan Center
09:37AM 16.8717 -63.6888 313° West  Level FlightAware Approximate
09:37AM 16.5667 -63.4167 298° West 380 437 38,000  Level San Juan Center
09:38AM 16.9435 -63.7690 313° West  Level FlightAware Approximate
09:38AM 16.6333 -63.5000 310° West 370 426 38,000  Level San Juan Center
09:39AM 17.0153 -63.8492 313° West  Level FlightAware Approximate
09:39AM 16.6833 -63.6000 298° West 370 426 38,000  Level San Juan Center
09:40AM 17.0870 -63.9294 313° West  Level FlightAware Approximate
09:40AM 16.7500 -63.6667 316° Northwest 370 426 38,000  Level San Juan Center
09:41AM 16.8000 -63.7667 298° West 370 426 38,000  Level San Juan Center
09:42AM 16.8667 -63.8500 310° West 370 426 38,000  Level San Juan Center
09:43AM 16.9167 -63.9500 298° West 370 426 38,000  Level San Juan Center
09:44AM 16.9833 -64.0333 310° West 370 426 38,000  Level San Juan Center
09:45AM 17.0333 -64.1167 302° West 370 426 38,000  Level San Juan Center
09:46AM 17.1000 -64.2000 310° West 370 426 38,000  Level San Juan Center
09:47AM 17.1500 -64.3000 298° West 370 426 38,000  Level San Juan Center
09:48AM 17.2167 -64.3833 310° West 360 414 38,000  Level San Juan Center
09:49AM 17.2667 -64.4667 302° West 370 426 38,000  Level San Juan Center
09:50AM 17.3333 -64.5667 305° West 370 426 38,000  Level San Juan Center
09:51AM 17.3833 -64.6500 302° West 370 426 38,000  Level San Juan Center
09:52AM 17.4333 -64.7333 302° West 370 426 38,000  Level San Juan Center
09:53AM 17.5000 -64.8333 305° West 360 414 38,000  Level San Juan Center
09:54AM 17.5500 -64.9167 302° West 370 426 38,000  Level San Juan Center
09:55AM 17.6167 -65.0000 310° West 370 426 38,000  Level San Juan Center
09:56AM 17.6667 -65.1000 298° West 360 414 38,000  Level San Juan Center
09:57AM 17.7333 -65.1833 310° West 360 414 38,000  Level San Juan Center
09:58AM 17.7833 -65.2667 302° West 370 426 38,000  Level San Juan Center
09:59AM 17.8333 -65.3500 302° West 360 414 38,000  Level San Juan Center
10:00AM 17.9000 -65.4500 305° West 360 414 38,000  Level San Juan Center
10:01AM 17.9500 -65.5333 302° West 360 414 38,000  Level San Juan Center
10:02AM 18.0167 -65.6333 305° West 360 414 38,000  Level San Juan Center
10:03AM 18.0667 -65.7167 302° West 360 414 38,000  Level San Juan Center
10:04AM 18.1167 -65.8000 302° West 360 414 38,000  Level San Juan Center
10:05AM 18.1833 -65.8833 310° West 360 414 38,000  Level San Juan Center
10:06AM 18.2333 -65.9833 298° West 360 414 38,000  Level San Juan Center
10:07AM 18.2833 -66.0667 302° West 370 426 38,000  Level San Juan Center
10:08AM 18.3500 -66.1500 310° West 370 426 38,000  Level San Juan Center
10:09AM 18.4000 -66.2500 298° West 370 426 38,000  Level San Juan Center
10:10AM 18.4667 -66.3333 310° West 360 414 38,000  Level San Juan Center
10:11AM 18.5167 -66.4167 302° West 360 414 38,000  Level San Juan Center
10:12AM 18.5833 -66.5167 305° West 370 426 38,000  Level San Juan Center
10:13AM 18.6333 -66.6000 302° West 380 437 38,000  Level San Juan Center
10:14AM 18.7000 -66.7000 305° West 370 426 38,000  Level San Juan Center
10:16AM 18.7500 -66.8000 298° West 370 426 38,000  Level San Juan Center
10:17AM 18.8167 -66.8833 310° West 380 437 38,000  Level San Juan Center
10:18AM 18.8667 -66.9667 302° West 380 437 38,000  Level San Juan Center
10:19AM 18.9167 -67.0667 298° West 370 426 38,000  Level San Juan Center
10:20AM 18.9833 -67.1500 310° West 370 426 38,000  Level San Juan Center
10:21AM 19.0333 -67.2333 302° West 380 437 38,000  Level San Juan Center
10:22AM 19.0833 -67.3333 298° West 380 437 38,000  Level San Juan Center
10:23AM 19.1500 -67.4167 310° West 370 426 38,000  Level San Juan Center
10:24AM 19.2000 -67.5167 298° West 380 437 38,000  Level San Juan Center
10:25AM 19.2667 -67.6000 310° West 370 426 38,000  Level San Juan Center
10:26AM 19.3167 -67.7000 298° West 370 426 38,000  Level San Juan Center
10:27AM 19.3833 -67.8000 305° West 370 426 38,000  Level San Juan Center
10:28AM 19.4333 -67.8833 302° West 370 426 38,000  Level San Juan Center
10:29AM 19.4833 -67.9833 298° West 370 426 38,000  Level San Juan Center
10:30AM 19.5500 -68.0667 310° West 380 437 38,000  Level San Juan Center
10:31AM 19.6000 -68.1667 298° West 370 426 38,000  Level San Juan Center
10:32AM 19.6667 -68.2500 310° West 370 426 38,000  Level San Juan Center
10:33AM 19.7167 -68.3500 298° West 370 426 38,000  Level San Juan Center
10:33AM 19.7692 -68.4169 310° West 377 434 38,000  Level Miami Center
10:34AM 19.8333 -68.5275 302° West 428 493 38,000  Level Miami Center
10:35AM 19.8853 -68.6058 305° West 406 467 38,000  Level Miami Center
10:36AM 19.9381 -68.6994 301° West 391 450 38,000  Level Miami Center
10:37AM 20.0008 -68.7881 307° West 380 437 38,000  Level Miami Center
10:38AM 20.0597 -68.8794 304° West 380 437 38,000  Level Miami Center
10:39AM 20.1144 -68.9733 302° West 380 437 38,000  Level Miami Center
10:40AM 20.1753 -69.0644 305° West 380 437 38,000  Level Miami Center
10:41AM 20.2339 -69.1561 304° West 380 437 38,000 180 Level Miami Center
10:42AM 20.2925 -69.2500 304° West 385 443 38,400 540 Climbing Miami Center
10:43AM 20.3533 -69.3414 305° West 380 437 39,100 600 Climbing Miami Center
10:44AM 20.4097 -69.4311 304° West 380 437 39,600 420 Climbing Miami Center
10:45AM 20.4661 -69.5253 303° West 380 437 40,000 180 Climbing Miami Center
10:46AM 20.5247 -69.6172 304° West 380 437 40,000  Level Miami Center
10:47AM 20.5853 -69.7092 305° West 380 437 40,000  Level Miami Center
10:48AM 20.6503 -69.8100 305° West 380 437 40,000  Level Miami Center
10:49AM 20.7086 -69.9044 303° West 380 437 40,000  Level Miami Center
10:50AM 20.7669 -69.9989 303° West 386 444 40,000  Level Miami Center
10:51AM 20.8275 -70.0933 304° West 386 444 40,000  Level Miami Center
10:52AM 20.8856 -70.1858 304° West 381 438 40,000  Level Miami Center
10:53AM 20.9458 -70.2803 304° West 381 438 40,000  Level Miami Center
10:54AM 21.0042 -70.3731 304° West 381 438 40,000  Level Miami Center
10:55AM 21.0642 -70.4678 304° West 381 438 40,000  Level Miami Center
10:56AM 21.1222 -70.5606 304° West 381 438 40,000  Level Miami Center
10:57AM 21.1803 -70.6558 303° West 381 438 40,000  Level Miami Center
10:58AM 21.2383 -70.7486 304° West 381 438 40,000  Level Miami Center
10:59AM 21.2983 -70.8417 305° West 381 438 40,000  Level Miami Center
11:00AM 21.3539 -70.9306 304° West 381 438 40,000  Level Miami Center
11:01AM 21.4028 -71.0106 303° West 381 438 40,000  Level Miami Center
11:02AM 21.4692 -71.1081 306° West 381 438 40,000  Level Miami Center
11:03AM 21.5311 -71.2056 304° West 381 438 40,000  Level Miami Center
11:04AM 21.5914 -71.3147 301° West 438 504 40,000  Level Miami Center
11:05AM 21.6469 -71.4083 303° West 416 479 40,000  Level Miami Center
11:06AM 21.7067 -71.5042 304° West 396 456 40,000  Level Miami Center
11:07AM 21.7664 -71.6000 304° West 390 449 40,000  Level Miami Center
11:08AM 21.8239 -71.6958 303° West 390 449 40,000  Level Miami Center
11:09AM 21.8833 -71.7919 304° West 385 443 40,000  Level Miami Center
11:10AM 21.9428 -71.8881 304° West 385 443 40,000  Level Miami Center
11:11AM 22.0022 -71.9844 304° West 385 443 40,000  Level Miami Center
11:12AM 22.0617 -72.0806 304° West 385 443 40,000  Level Miami Center
11:13AM 22.1192 -72.1794 302° West 385 443 40,000  Level Miami Center
11:14AM 22.1783 -72.2758 304° West 385 443 40,000  Level Miami Center
11:15AM 22.2397 -72.3725 304° West 385 443 40,000  Level Miami Center
11:16AM 22.2969 -72.4714 302° West 385 443 40,000  Level Miami Center
11:17AM 22.3581 -72.5681 304° West 385 443 40,000  Level Miami Center
11:18AM 22.4153 -72.6694 301° West 385 443 40,000  Level Miami Center
11:19AM 22.4742 -72.7686 303° West 385 443 40,000  Level Miami Center
11:20AM 22.5353 -72.8681 304° West 390 449 40,000  Level Miami Center
11:21AM 22.5964 -72.9672 304° West 390 449 40,000  Level Miami Center
11:22AM 22.6533 -73.0692 301° West 390 449 40,000  Level Miami Center
11:23AM 22.7078 -73.1642 302° West 396 456 40,000  Level Miami Center
11:24AM 22.7731 -73.2636 305° West 391 450 40,000  Level Miami Center
11:25AM 22.8358 -73.3656 304° West 404 465 40,000  Level Miami Center
11:26AM 22.8967 -73.4653 304° West 404 465 40,000  Level Miami Center
11:27AM 22.9533 -73.5653 302° West 404 465 40,000  Level Miami Center
11:28AM 23.0161 -73.6675 304° West 404 465 40,000  Level Miami Center
11:29AM 23.0725 -73.7678 301° West 404 465 40,000  Level Miami Center
11:30AM 23.1331 -73.8703 303° West 404 465 40,000  Level Miami Center
11:31AM 23.1914 -73.9683 303° West 397 457 40,000  Level Miami Center
11:32AM 23.2517 -74.0708 303° West 397 457 40,000  Level Miami Center
11:33AM 23.3100 -74.1692 303° West 397 457 40,000  Level Miami Center
11:34AM 23.3681 -74.2697 302° West 397 457 40,000  Level Miami Center
11:35AM 23.4283 -74.3681 304° West 397 457 40,000  Level Miami Center
11:36AM 23.4864 -74.4689 302° West 397 457 40,000  Level Miami Center
11:37AM 23.5464 -74.5697 303° West 397 457 40,000  Level Miami Center
11:38AM 23.6064 -74.6708 303° West 397 457 40,000  Level Miami Center
11:39AM 23.6644 -74.7742 302° West 397 457 40,000  Level Miami Center
11:40AM 23.7242 -74.8753 303° West 397 457 40,000  Level Miami Center
11:41AM 23.7819 -74.9764 302° West 397 457 40,000  Level Miami Center
11:42AM 23.8394 -75.0756 302° West 397 457 40,000  Level Miami Center
11:43AM 23.8972 -75.1747 303° West 397 457 40,000  Level Miami Center
11:44AM 23.9547 -75.2739 302° West 397 457 40,000  Level Miami Center
11:45AM 24.0100 -75.3733 301° West 392 451 40,000  Level Miami Center
11:46AM 24.0675 -75.4728 302° West 392 451 40,000  Level Miami Center
11:47AM 24.1225 -75.5678 302° West 386 444 40,000  Level Miami Center
11:48AM 24.1778 -75.6675 301° West 381 438 40,000  Level Miami Center
11:49AM 24.2328 -75.7650 302° West 381 438 40,000  Level Miami Center
11:50AM 24.2919 -75.8647 303° West 381 438 40,000  Level Miami Center
11:51AM 24.3469 -75.9625 302° West 381 438 40,000  Level Miami Center
11:52AM 24.4019 -76.0625 301° West 381 438 40,000  Level Miami Center
11:53AM 24.4611 -76.1625 303° West 381 438 40,000  Level Miami Center
11:54AM 24.5136 -76.2606 300° West 381 438 40,000  Level Miami Center
11:55AM 24.5725 -76.3675 301° West 376 433 40,000  Level Miami Center
11:56AM 24.6294 -76.4678 302° West 382 440 40,000  Level Miami Center
11:57AM 24.6839 -76.5683 301° West 382 440 40,000  Level Miami Center
11:58AM 24.7406 -76.6667 302° West 382 440 40,000  Level Miami Center
11:59AM 24.7950 -76.7672 301° West 382 440 40,000  Level Miami Center
12:00PM 24.8492 -76.8703 300° West 382 440 40,000 -600 Level Miami Center
12:01PM 24.8889 -76.9781 292° West 382 440 38,900 -1,200 Descending Miami Center
12:02PM 24.9306 -77.0903 292° West 387 445 37,700 -1,260 Descending Miami Center
12:03PM 24.9744 -77.2050 293° West 399 459 36,400 -1,200 Descending Miami Center
12:04PM 25.0178 -77.3197 293° West 405 466 35,300 -900 Descending Miami Center
12:05PM 25.0633 -77.4369 293° West 428 493 34,600 -540 Descending Miami Center
12:06PM 25.1067 -77.5772 289° West 436 502 34,300 -360 Descending Miami Center
12:07PM 25.1000 -77.6872 266° West 429 494 33,900 -900 Descending Miami Center
12:08PM 25.1139 -77.8136 277° West 419 482 32,600 -1,620 Descending Miami Center
12:09PM 25.1297 -77.9400 278° West 419 482 30,700 -1,860 Descending Miami Center
12:10PM 25.1475 -78.0642 279° West 419 482 28,900 -1,620 Descending Miami Center
12:11PM 25.1631 -78.1883 278° West 419 482 27,500 -1,380 Descending Miami Center
12:12PM 25.1786 -78.3125 278° West 414 476 26,200 -1,320 Descending Miami Center
12:13PM 25.1922 -78.4319 277° West 408 470 24,900 -1,200 Descending Miami Center
12:14PM 25.2033 -78.5539 276° West 408 470 23,800 -1,200 Descending Miami Center
12:15PM 25.2186 -78.6781 278° West 408 470 22,600 -1,200 Descending Miami Center
12:16PM 25.2861 -78.7825 306° West 420 483 21,400 -1,320 Descending Miami Center
12:17PM 25.3600 -78.8850 309° West 413 475 20,000 -1,500 Descending Miami Center
12:18PM 25.4358 -78.9942 308° West 413 475 18,400 -1,680 Descending Miami Center
12:19PM 25.4992 -79.0967 304° West 408 470 16,700 -1,740 Descending Miami Center
12:20PM 25.5603 -79.1900 306° West 398 458 15,000 -1,800 Descending Miami Center
12:21PM 25.6175 -79.2764 306° West 373 429 13,100 -2,040 Descending Miami Center
12:22PM 25.6706 -79.3533 307° West 341 392 11,000 -2,220 Descending Miami Center
12:23PM 25.7172 -79.4281 305° West 312 359 8,700 -2,400 Descending Miami Center
12:24PM 25.7394 -79.4703 300° West 282 325 7,300 -2,520 Descending Miami Center
12:24PM 25.7619 -79.4961 314° West 283 326 6,200 -1,500 Descending Miami Center
12:25PM 25.8006 -79.5592 304° West 257 296 5,300 -660 Descending Miami Center
12:26PM 25.8411 -79.6225 305° West 255 293 5,000 -300 Descending Miami Center
12:27PM 25.9008 -79.6700 324° Northwest 285 328 4,700 -600 Descending Miami Center
12:28PM 25.9781 -79.6764 356° North 276 318 3,800 -840 Descending Miami Center
12:29PM 26.0489 -79.6758 360° North 249 287 3,000 -900 Descending Miami Center
12:30PM 26.1089 -79.7072 335° Northwest 225 259 2,000 -600 Descending Miami Center
12:31PM 26.1331 -79.7542 300° West 228 262 2,000  Level Miami Center
12:31PM 26.1392 -79.7683 296° West 212 244 2,000  Level Miami Center
12:32PM 26.1628 -79.8336 292° West 251 289 2,000  Level Miami Center
12:33PM 26.1928 -79.9083 294° West 251 289 2,000 -60 Level Miami Center
12:34PM 26.2142 -79.9783 289° West 246 283 1,900 -180 Descending Miami Center
12:35PM 26.2086 -80.0453 265° West 188 216 1,700 -300 Descending Miami Center
12:36PM 26.2033 -80.0939 263° West 154 177 1,300 -480 Descending Miami Center
12:37PM 26.2003 -80.1378 266° West 128 147 800 -540 Descending Miami Center
12:39PM 26.1833 -80.1667 289° West  Level FlightAware Approximate
12:46PM 26.1973 -80.1707 289° West  Level Estimated